sensor_id;sensor_type;location;lat;lon;timestamp;pressure;altitude;pressure_sealevel;temperature;humidity
14041;BME280;7095;51.388;6.196;2022-08-21T00:00:56;53483.19;;;-145.32;100.00
14041;BME280;7095;51.388;6.196;2022-08-21T00:03:25;53465.31;;;-145.32;100.00
14041;BME280;7095;51.388;6.196;2022-08-21T00:05:55;53481.22;;;-145.32;100.00
14041;BME280;7095;51.388;6.196;2022-08-21T00:08:24;53497.13;;;-145.32;100.00
14041;BME280;7095;51.388;6.196;2022-08-21T00:10:52;53485.19;;;-145.32;100.00
14041;BME280;7095;51.388;6.196;2022-08-21T00:13:21;53487.19;;;-145.32;100.00
14041;BME280;7095;51.388;6.196;2022-08-21T00:15:50;53449.41;;;-145.32;100.00
14041;BME280;7095;51.388;6.196;2022-08-21T00:18:19;53459.34;;;-145.32;100.00
14041;BME280;7095;51.388;6.196;2022-08-21T00:20:49;53467.28;;;-145.32;100.00
14041;BME280;7095;51.388;6.196;2022-08-21T00:23:21;53491.16;;;-145.32;100.00
14041;BME280;7095;51.388;6.196;2022-08-21T00:25:50;53493.13;;;-145.32;100.00
14041;BME280;7095;51.388;6.196;2022-08-21T00:28:18;53479.22;;;-145.32;100.00
14041;BME280;7095;51.388;6.196;2022-08-21T00:30:47;53491.16;;;-145.32;100.00
14041;BME280;7095;51.388;6.196;2022-08-21T00:33:16;53503.06;;;-145.32;100.00
14041;BME280;7095;51.388;6.196;2022-08-21T00:35:44;53467.28;;;-145.32;100.00
14041;BME280;7095;51.388;6.196;2022-08-21T00:38:13;53505.06;;;-145.32;100.00
14041;BME280;7095;51.388;6.196;2022-08-21T00:40:46;53509.03;;;-145.32;100.00
14041;BME280;7095;51.388;6.196;2022-08-21T00:43:17;53487.19;;;-145.32;100.00
14041;BME280;7095;51.388;6.196;2022-08-21T00:45:46;53483.19;;;-145.32;100.00
14041;BME280;7095;51.388;6.196;2022-08-21T00:48:15;53511.03;;;-145.32;100.00
14041;BME280;7095;51.388;6.196;2022-08-21T00:50:50;53473.25;;;-145.32;100.00
14041;BME280;7095;51.388;6.196;2022-08-21T00:53:21;53495.13;;;-145.32;100.00
14041;BME280;7095;51.388;6.196;2022-08-21T00:55:51;53501.09;;;-145.32;100.00
14041;BME280;7095;51.388;6.196;2022-08-21T00:58:23;53505.06;;;-145.32;100.00
14041;BME280;7095;51.388;6.196;2022-08-21T01:00:55;53501.09;;;-145.32;100.00
14041;BME280;7095;51.388;6.196;2022-08-21T01:03:25;53489.16;;;-145.32;100.00
14041;BME280;7095;51.388;6.196;2022-08-21T01:05:53;53503.06;;;-145.32;100.00
14041;BME280;7095;51.388;6.196;2022-08-21T01:08:23;53503.06;;;-145.32;100.00
14041;BME280;7095;51.388;6.196;2022-08-21T01:10:53;53503.06;;;-145.32;100.00
14041;BME280;7095;51.388;6.196;2022-08-21T01:13:25;53495.13;;;-145.32;100.00
14041;BME280;7095;51.388;6.196;2022-08-21T01:15:57;53477.22;;;-145.32;100.00
14041;BME280;7095;51.388;6.196;2022-08-21T01:18:29;53499.09;;;-145.32;100.00
14041;BME280;7095;51.388;6.196;2022-08-21T01:21:05;53518.97;;;-145.32;100.00
14041;BME280;7095;51.388;6.196;2022-08-21T01:23:35;53493.13;;;-145.32;100.00
14041;BME280;7095;51.388;6.196;2022-08-21T01:26:05;53501.09;;;-145.32;100.00
14041;BME280;7095;51.388;6.196;2022-08-21T01:28:41;53493.13;;;-145.32;100.00
14041;BME280;7095;51.388;6.196;2022-08-21T01:31:10;53487.19;;;-145.32;100.00
14041;BME280;7095;51.388;6.196;2022-08-21T01:33:42;53520.97;;;-145.32;100.00
14041;BME280;7095;51.388;6.196;2022-08-21T01:36:13;53477.22;;;-145.32;100.00
14041;BME280;7095;51.388;6.196;2022-08-21T01:38:42;53507.06;;;-145.32;100.00
14041;BME280;7095;51.388;6.196;2022-08-21T01:41:14;53493.13;;;-145.32;100.00
14041;BME280;7095;51.388;6.196;2022-08-21T01:43:43;53507.06;;;-145.32;100.00
14041;BME280;7095;51.388;6.196;2022-08-21T01:46:12;53499.09;;;-145.32;100.00
14041;BME280;7095;51.388;6.196;2022-08-21T01:48:41;53534.88;;;-145.32;100.00
14041;BME280;7095;51.388;6.196;2022-08-21T01:51:13;53503.06;;;-145.32;100.00
14041;BME280;7095;51.388;6.196;2022-08-21T01:53:41;53515.00;;;-145.32;100.00
14041;BME280;7095;51.388;6.196;2022-08-21T01:56:12;53509.03;;;-145.32;100.00
14041;BME280;7095;51.388;6.196;2022-08-21T01:58:42;53501.09;;;-145.32;100.00
14041;BME280;7095;51.388;6.196;2022-08-21T02:01:12;53534.88;;;-145.32;100.00
14041;BME280;7095;51.388;6.196;2022-08-21T02:03:41;53518.97;;;-145.32;100.00
14041;BME280;7095;51.388;6.196;2022-08-21T02:06:15;53507.06;;;-145.32;100.00
14041;BME280;7095;51.388;6.196;2022-08-21T02:08:45;53513.03;;;-145.32;100.00
14041;BME280;7095;51.388;6.196;2022-08-21T02:11:14;53538.88;;;-145.32;100.00
14041;BME280;7095;51.388;6.196;2022-08-21T02:13:43;53528.94;;;-145.32;100.00
14041;BME280;7095;51.388;6.196;2022-08-21T02:16:12;53532.91;;;-145.32;100.00
14041;BME280;7095;51.388;6.196;2022-08-21T02:18:48;53526.94;;;-145.32;100.00
14041;BME280;7095;51.388;6.196;2022-08-21T02:21:18;53524.94;;;-145.32;100.00
14041;BME280;7095;51.388;6.196;2022-08-21T02:23:46;53509.03;;;-145.32;100.00
14041;BME280;7095;51.388;6.196;2022-08-21T02:26:15;53522.97;;;-145.32;100.00
14041;BME280;7095;51.388;6.196;2022-08-21T02:28:44;53495.13;;;-145.32;100.00
14041;BME280;7095;51.388;6.196;2022-08-21T02:31:12;53522.97;;;-145.32;100.00
14041;BME280;7095;51.388;6.196;2022-08-21T02:33:41;53501.09;;;-145.32;100.00
14041;BME280;7095;51.388;6.196;2022-08-21T02:36:11;53501.09;;;-145.32;100.00
14041;BME280;7095;51.388;6.196;2022-08-21T02:38:42;53517.00;;;-145.32;100.00
14041;BME280;7095;51.388;6.196;2022-08-21T02:41:14;53546.81;;;-145.32;100.00
14041;BME280;7095;51.388;6.196;2022-08-21T02:43:44;53515.00;;;-145.32;100.00
14041;BME280;7095;51.388;6.196;2022-08-21T02:46:15;53536.88;;;-145.32;100.00
14041;BME280;7095;51.388;6.196;2022-08-21T02:48:44;53542.84;;;-145.32;100.00
14041;BME280;7095;51.388;6.196;2022-08-21T02:51:15;53520.97;;;-145.32;100.00
14041;BME280;7095;51.388;6.196;2022-08-21T02:53:51;53542.84;;;-145.32;100.00
14041;BME280;7095;51.388;6.196;2022-08-21T02:56:20;53536.88;;;-145.32;100.00
14041;BME280;7095;51.388;6.196;2022-08-21T02:58:51;53497.13;;;-145.32;100.00
14041;BME280;7095;51.388;6.196;2022-08-21T03:01:21;53522.97;;;-145.32;100.00
14041;BME280;7095;51.388;6.196;2022-08-21T03:03:50;53511.03;;;-145.32;100.00
14041;BME280;7095;51.388;6.196;2022-08-21T03:06:21;53511.03;;;-145.32;100.00
14041;BME280;7095;51.388;6.196;2022-08-21T03:08:51;53546.81;;;-145.32;100.00
14041;BME280;7095;51.388;6.196;2022-08-21T03:11:19;53520.97;;;-145.32;100.00
14041;BME280;7095;51.388;6.196;2022-08-21T03:13:48;53548.81;;;-145.32;100.00
14041;BME280;7095;51.388;6.196;2022-08-21T03:16:17;53536.88;;;-145.32;100.00
14041;BME280;7095;51.388;6.196;2022-08-21T03:18:47;53550.78;;;-145.32;100.00
14041;BME280;7095;51.388;6.196;2022-08-21T03:21:16;53507.06;;;-145.32;100.00
14041;BME280;7095;51.388;6.196;2022-08-21T03:23:45;53538.88;;;-145.32;100.00
14041;BME280;7095;51.388;6.196;2022-08-21T03:26:16;53564.72;;;-145.32;100.00
14041;BME280;7095;51.388;6.196;2022-08-21T03:28:45;53511.03;;;-145.32;100.00
14041;BME280;7095;51.388;6.196;2022-08-21T03:31:14;53526.94;;;-145.32;100.00
14041;BME280;7095;51.388;6.196;2022-08-21T03:33:44;53518.97;;;-145.32;100.00
14041;BME280;7095;51.388;6.196;2022-08-21T03:36:13;53540.84;;;-145.32;100.00
14041;BME280;7095;51.388;6.196;2022-08-21T03:38:41;53552.78;;;-145.32;100.00
14041;BME280;7095;51.388;6.196;2022-08-21T03:41:10;53517.00;;;-145.32;100.00
14041;BME280;7095;51.388;6.196;2022-08-21T03:43:40;53558.75;;;-145.32;100.00
14041;BME280;7095;51.388;6.196;2022-08-21T03:46:08;53546.81;;;-145.32;100.00
14041;BME280;7095;51.388;6.196;2022-08-21T03:48:39;53560.72;;;-145.32;100.00
14041;BME280;7095;51.388;6.196;2022-08-21T03:51:07;53548.81;;;-145.32;100.00
14041;BME280;7095;51.388;6.196;2022-08-21T03:53:36;53542.84;;;-145.32;100.00
14041;BME280;7095;51.388;6.196;2022-08-21T03:56:05;53558.75;;;-145.32;100.00
14041;BME280;7095;51.388;6.196;2022-08-21T03:58:34;53570.69;;;-145.32;100.00
14041;BME280;7095;51.388;6.196;2022-08-21T04:01:05;53558.75;;;-145.32;100.00
14041;BME280;7095;51.388;6.196;2022-08-21T04:03:35;53562.72;;;-145.32;100.00
14041;BME280;7095;51.388;6.196;2022-08-21T04:06:05;53598.50;;;-145.32;100.00
14041;BME280;7095;51.388;6.196;2022-08-21T04:08:34;53554.78;;;-145.32;100.00
14041;BME280;7095;51.388;6.196;2022-08-21T04:11:04;53534.88;;;-145.32;100.00
14041;BME280;7095;51.388;6.196;2022-08-21T04:13:33;53526.94;;;-145.32;100.00
14041;BME280;7095;51.388;6.196;2022-08-21T04:16:13;53540.84;;;-145.32;100.00
14041;BME280;7095;51.388;6.196;2022-08-21T04:18:42;53540.84;;;-145.32;100.00
14041;BME280;7095;51.388;6.196;2022-08-21T04:21:11;53554.78;;;-145.32;100.00
14041;BME280;7095;51.388;6.196;2022-08-21T04:23:39;53578.63;;;-145.32;100.00
14041;BME280;7095;51.388;6.196;2022-08-21T04:26:08;53562.72;;;-145.32;100.00
14041;BME280;7095;51.388;6.196;2022-08-21T04:28:37;53558.75;;;-145.32;100.00
14041;BME280;7095;51.388;6.196;2022-08-21T04:31:06;53574.66;;;-145.32;100.00
14041;BME280;7095;51.388;6.196;2022-08-21T04:33:36;53548.81;;;-145.32;100.00
14041;BME280;7095;51.388;6.196;2022-08-21T04:36:05;53548.81;;;-145.32;100.00
14041;BME280;7095;51.388;6.196;2022-08-21T04:38:34;53517.00;;;-145.32;100.00
14041;BME280;7095;51.388;6.196;2022-08-21T04:41:04;53515.00;;;-145.32;100.00
14041;BME280;7095;51.388;6.196;2022-08-21T04:43:33;53483.19;;;-145.32;100.00
14041;BME280;7095;51.388;6.196;2022-08-21T04:46:02;53532.91;;;-145.32;100.00
14041;BME280;7095;51.388;6.196;2022-08-21T04:48:31;53556.75;;;-145.32;100.00
14041;BME280;7095;51.388;6.196;2022-08-21T04:51:04;53538.88;;;-145.32;100.00
14041;BME280;7095;51.388;6.196;2022-08-21T04:53:37;53530.91;;;-145.32;100.00
14041;BME280;7095;51.388;6.196;2022-08-21T04:56:09;53503.06;;;-145.32;100.00
14041;BME280;7095;51.388;6.196;2022-08-21T04:58:40;53542.84;;;-145.32;100.00
14041;BME280;7095;51.388;6.196;2022-08-21T05:01:13;53534.88;;;-145.32;100.00
14041;BME280;7095;51.388;6.196;2022-08-21T05:03:44;53536.88;;;-145.32;100.00
14041;BME280;7095;51.388;6.196;2022-08-21T05:06:16;53507.06;;;-145.32;100.00
14041;BME280;7095;51.388;6.196;2022-08-21T05:08:46;53513.03;;;-145.32;100.00
14041;BME280;7095;51.388;6.196;2022-08-21T05:11:28;53518.97;;;-145.32;100.00
14041;BME280;7095;51.388;6.196;2022-08-21T05:13:57;53522.97;;;-145.32;100.00
14041;BME280;7095;51.388;6.196;2022-08-21T05:16:26;53499.09;;;-145.32;100.00
14041;BME280;7095;51.388;6.196;2022-08-21T05:19:04;53513.03;;;-145.32;100.00
14041;BME280;7095;51.388;6.196;2022-08-21T05:21:35;53511.03;;;-145.32;100.00
14041;BME280;7095;51.388;6.196;2022-08-21T05:24:04;53507.06;;;-145.32;100.00
14041;BME280;7095;51.388;6.196;2022-08-21T05:26:33;53495.13;;;-145.32;100.00
14041;BME280;7095;51.388;6.196;2022-08-21T05:29:13;53544.81;;;-145.32;100.00
14041;BME280;7095;51.388;6.196;2022-08-21T05:31:42;53483.19;;;-145.32;100.00
14041;BME280;7095;51.388;6.196;2022-08-21T05:34:11;53493.13;;;-145.32;100.00
14041;BME280;7095;51.388;6.196;2022-08-21T05:36:44;53487.19;;;-145.32;100.00
14041;BME280;7095;51.388;6.196;2022-08-21T05:39:13;53491.16;;;-145.32;100.00
14041;BME280;7095;51.388;6.196;2022-08-21T05:41:42;53489.16;;;-145.32;100.00
14041;BME280;7095;51.388;6.196;2022-08-21T05:44:11;53526.94;;;-145.32;100.00
14041;BME280;7095;51.388;6.196;2022-08-21T05:46:39;53495.13;;;-145.32;100.00
14041;BME280;7095;51.388;6.196;2022-08-21T05:49:08;53475.25;;;-145.32;100.00
14041;BME280;7095;51.388;6.196;2022-08-21T05:51:39;53467.28;;;-145.32;100.00
14041;BME280;7095;51.388;6.196;2022-08-21T05:54:09;53471.28;;;-145.32;100.00
14041;BME280;7095;51.388;6.196;2022-08-21T05:56:38;53459.34;;;-145.32;100.00
14041;BME280;7095;51.388;6.196;2022-08-21T05:59:06;53473.25;;;-145.32;100.00
14041;BME280;7095;51.388;6.196;2022-08-21T06:01:35;53497.13;;;-145.32;100.00
14041;BME280;7095;51.388;6.196;2022-08-21T06:04:04;53475.25;;;-145.32;100.00
14041;BME280;7095;51.388;6.196;2022-08-21T06:06:34;53461.31;;;-145.32;100.00
14041;BME280;7095;51.388;6.196;2022-08-21T06:09:04;53435.47;;;-145.32;100.00
14041;BME280;7095;51.388;6.196;2022-08-21T06:11:34;53425.53;;;-145.32;100.00
14041;BME280;7095;51.388;6.196;2022-08-21T06:14:03;53443.44;;;-145.32;100.00
14041;BME280;7095;51.388;6.196;2022-08-21T06:16:33;53425.53;;;-145.32;100.00
14041;BME280;7095;51.388;6.196;2022-08-21T06:19:01;53455.38;;;-145.32;100.00
14041;BME280;7095;51.388;6.196;2022-08-21T06:21:30;53443.44;;;-145.32;100.00
14041;BME280;7095;51.388;6.196;2022-08-21T06:23:59;53431.50;;;-145.32;100.00
14041;BME280;7095;51.388;6.196;2022-08-21T06:26:27;53445.44;;;-145.32;100.00
14041;BME280;7095;51.388;6.196;2022-08-21T06:28:57;53441.44;;;-145.32;100.00
14041;BME280;7095;51.388;6.196;2022-08-21T06:31:27;53405.66;;;-145.32;100.00
14041;BME280;7095;51.388;6.196;2022-08-21T06:33:57;53419.59;;;-145.32;100.00
14041;BME280;7095;51.388;6.196;2022-08-21T06:36:25;53437.47;;;-145.32;100.00
14041;BME280;7095;51.388;6.196;2022-08-21T06:38:54;53427.53;;;-145.32;100.00
14041;BME280;7095;51.388;6.196;2022-08-21T06:41:24;53421.56;;;-145.32;100.00
14041;BME280;7095;51.388;6.196;2022-08-21T06:43:53;53407.66;;;-145.32;100.00
14041;BME280;7095;51.388;6.196;2022-08-21T06:46:29;53427.53;;;-145.32;100.00
14041;BME280;7095;51.388;6.196;2022-08-21T06:48:57;53409.63;;;-145.32;100.00
14041;BME280;7095;51.388;6.196;2022-08-21T06:51:27;53385.78;;;-145.32;100.00
14041;BME280;7095;51.388;6.196;2022-08-21T06:53:55;53395.72;;;-145.32;100.00
14041;BME280;7095;51.388;6.196;2022-08-21T06:56:25;53407.66;;;-145.32;100.00
14041;BME280;7095;51.388;6.196;2022-08-21T06:58:55;53403.69;;;-145.32;100.00
14041;BME280;7095;51.388;6.196;2022-08-21T07:01:25;53399.69;;;-145.32;100.00
14041;BME280;7095;51.388;6.196;2022-08-21T07:03:55;53411.63;;;-145.32;100.00
14041;BME280;7095;51.388;6.196;2022-08-21T07:06:24;53403.69;;;-145.32;100.00
14041;BME280;7095;51.388;6.196;2022-08-21T07:08:55;53381.81;;;-145.32;100.00
14041;BME280;7095;51.388;6.196;2022-08-21T07:11:25;53403.69;;;-145.32;100.00
14041;BME280;7095;51.388;6.196;2022-08-21T07:13:54;53397.72;;;-145.32;100.00
14041;BME280;7095;51.388;6.196;2022-08-21T07:16:24;53387.78;;;-145.32;100.00
14041;BME280;7095;51.388;6.196;2022-08-21T07:18:52;53369.88;;;-145.32;100.00
14041;BME280;7095;51.388;6.196;2022-08-21T07:21:22;53383.78;;;-145.32;100.00
14041;BME280;7095;51.388;6.196;2022-08-21T07:23:52;53350.00;;;-145.32;100.00
14041;BME280;7095;51.388;6.196;2022-08-21T07:26:23;53328.13;;;-145.32;100.00
14041;BME280;7095;51.388;6.196;2022-08-21T07:28:52;53373.84;;;-145.32;100.00
14041;BME280;7095;51.388;6.196;2022-08-21T07:31:23;53340.06;;;-145.32;100.00
14041;BME280;7095;51.388;6.196;2022-08-21T07:33:53;53352.00;;;-145.32;100.00
14041;BME280;7095;51.388;6.196;2022-08-21T07:36:24;53359.94;;;-145.32;100.00
14041;BME280;7095;51.388;6.196;2022-08-21T07:38:53;53336.09;;;-145.32;100.00
14041;BME280;7095;51.388;6.196;2022-08-21T07:41:27;53324.16;;;-145.32;100.00
14041;BME280;7095;51.388;6.196;2022-08-21T07:43:56;53336.09;;;-145.32;100.00
14041;BME280;7095;51.388;6.196;2022-08-21T07:46:25;53357.94;;;-145.32;100.00
14041;BME280;7095;51.388;6.196;2022-08-21T07:48:55;53344.03;;;-145.32;100.00
14041;BME280;7095;51.388;6.196;2022-08-21T07:51:27;53330.13;;;-145.32;100.00
14041;BME280;7095;51.388;6.196;2022-08-21T07:53:57;53328.13;;;-145.32;100.00
14041;BME280;7095;51.388;6.196;2022-08-21T07:56:27;53328.13;;;-145.32;100.00
14041;BME280;7095;51.388;6.196;2022-08-21T07:58:56;53310.25;;;-145.32;100.00
14041;BME280;7095;51.388;6.196;2022-08-21T08:01:25;53308.25;;;-145.32;100.00
14041;BME280;7095;51.388;6.196;2022-08-21T08:03:54;53310.25;;;-145.32;100.00
14041;BME280;7095;51.388;6.196;2022-08-21T08:06:25;53288.38;;;-145.32;100.00
14041;BME280;7095;51.388;6.196;2022-08-21T08:08:54;53318.19;;;-145.32;100.00
14041;BME280;7095;51.388;6.196;2022-08-21T08:11:23;53282.41;;;-145.32;100.00
14041;BME280;7095;51.388;6.196;2022-08-21T08:13:52;53308.25;;;-145.32;100.00
14041;BME280;7095;51.388;6.196;2022-08-21T08:16:20;53300.31;;;-145.32;100.00
14041;BME280;7095;51.388;6.196;2022-08-21T08:18:50;53312.22;;;-145.32;100.00
14041;BME280;7095;51.388;6.196;2022-08-21T08:21:19;53304.28;;;-145.32;100.00
14041;BME280;7095;51.388;6.196;2022-08-21T08:23:49;53320.19;;;-145.32;100.00
14041;BME280;7095;51.388;6.196;2022-08-21T08:26:18;53310.25;;;-145.32;100.00
14041;BME280;7095;51.388;6.196;2022-08-21T08:28:47;53308.25;;;-145.32;100.00
14041;BME280;7095;51.388;6.196;2022-08-21T08:31:16;53296.31;;;-145.32;100.00
14041;BME280;7095;51.388;6.196;2022-08-21T08:33:44;53292.34;;;-145.32;100.00
14041;BME280;7095;51.388;6.196;2022-08-21T08:36:14;53312.22;;;-145.32;100.00
14041;BME280;7095;51.388;6.196;2022-08-21T08:38:46;53276.44;;;-145.32;100.00
14041;BME280;7095;51.388;6.196;2022-08-21T08:41:19;53318.19;;;-145.32;100.00
14041;BME280;7095;51.388;6.196;2022-08-21T08:44:00;53296.31;;;-145.32;100.00
14041;BME280;7095;51.388;6.196;2022-08-21T08:46:35;53320.19;;;-145.32;100.00
14041;BME280;7095;51.388;6.196;2022-08-21T08:49:09;53286.38;;;-145.32;100.00
14041;BME280;7095;51.388;6.196;2022-08-21T08:51:45;53304.28;;;-145.32;100.00
14041;BME280;7095;51.388;6.196;2022-08-21T08:54:24;53288.38;;;-145.32;100.00
14041;BME280;7095;51.388;6.196;2022-08-21T08:56:55;53278.44;;;-145.32;100.00
14041;BME280;7095;51.388;6.196;2022-08-21T08:59:32;53294.34;;;-145.32;100.00
14041;BME280;7095;51.388;6.196;2022-08-21T09:02:03;53256.56;;;-145.32;100.00
14041;BME280;7095;51.388;6.196;2022-08-21T09:04:32;53276.44;;;-145.32;100.00
14041;BME280;7095;51.388;6.196;2022-08-21T09:07:11;53252.59;;;-145.32;100.00
14041;BME280;7095;51.388;6.196;2022-08-21T09:09:53;53256.56;;;-145.32;100.00
14041;BME280;7095;51.388;6.196;2022-08-21T09:12:33;53268.50;;;-145.32;100.00
14041;BME280;7095;51.388;6.196;2022-08-21T09:15:10;53256.56;;;-145.32;100.00
14041;BME280;7095;51.388;6.196;2022-08-21T09:17:57;53240.66;;;-145.32;100.00
14041;BME280;7095;51.388;6.196;2022-08-21T09:20:37;53228.75;;;-145.32;100.00
14041;BME280;7095;51.388;6.196;2022-08-21T09:23:17;53252.59;;;-145.32;100.00
14041;BME280;7095;51.388;6.196;2022-08-21T09:26:02;53252.59;;;-145.32;100.00
14041;BME280;7095;51.388;6.196;2022-08-21T09:28:35;53230.72;;;-145.32;100.00
14041;BME280;7095;51.388;6.196;2022-08-21T09:31:06;53256.56;;;-145.32;100.00
14041;BME280;7095;51.388;6.196;2022-08-21T09:33:37;53248.63;;;-145.32;100.00
14041;BME280;7095;51.388;6.196;2022-08-21T09:36:06;53248.63;;;-145.32;100.00
14041;BME280;7095;51.388;6.196;2022-08-21T09:38:36;53256.56;;;-145.32;100.00
14041;BME280;7095;51.388;6.196;2022-08-21T09:41:07;53232.72;;;-145.32;100.00
14041;BME280;7095;51.388;6.196;2022-08-21T09:43:38;53232.72;;;-145.32;100.00
14041;BME280;7095;51.388;6.196;2022-08-21T09:46:11;53220.78;;;-145.32;100.00
14041;BME280;7095;51.388;6.196;2022-08-21T09:48:44;53232.72;;;-145.32;100.00
14041;BME280;7095;51.388;6.196;2022-08-21T09:51:16;53234.69;;;-145.32;100.00
14041;BME280;7095;51.388;6.196;2022-08-21T09:53:49;53234.69;;;-145.32;100.00
14041;BME280;7095;51.388;6.196;2022-08-21T09:56:26;53220.78;;;-145.32;100.00
14041;BME280;7095;51.388;6.196;2022-08-21T09:59:20;53236.69;;;-145.32;100.00
14041;BME280;7095;51.388;6.196;2022-08-21T10:01:53;53220.78;;;-145.32;100.00
14041;BME280;7095;51.388;6.196;2022-08-21T10:04:27;53256.56;;;-145.32;100.00
14041;BME280;7095;51.388;6.196;2022-08-21T10:07:06;53216.81;;;-145.32;99.44
14041;BME280;7095;51.388;6.196;2022-08-21T10:09:35;53222.78;;;-145.32;97.66
14041;BME280;7095;51.388;6.196;2022-08-21T10:12:13;53234.69;;;-145.32;92.44
14041;BME280;7095;51.388;6.196;2022-08-21T10:14:51;53220.78;;;-145.32;94.14
14041;BME280;7095;51.388;6.196;2022-08-21T10:17:27;53228.75;;;-145.32;91.03
14041;BME280;7095;51.388;6.196;2022-08-21T10:20:04;53212.84;;;-145.32;91.51
14041;BME280;7095;51.388;6.196;2022-08-21T10:22:40;53224.75;;;-145.32;85.32
14041;BME280;7095;51.388;6.196;2022-08-21T10:25:18;53218.81;;;-145.32;88.70
14041;BME280;7095;51.388;6.196;2022-08-21T10:27:56;53212.84;;;-145.32;91.99
14041;BME280;7095;51.388;6.196;2022-08-21T10:30:36;53200.91;;;-145.32;85.59
14041;BME280;7095;51.388;6.196;2022-08-21T10:33:16;53204.88;;;-145.32;83.23
14041;BME280;7095;51.388;6.196;2022-08-21T10:35:53;53204.88;;;-145.32;82.88
14041;BME280;7095;51.388;6.196;2022-08-21T10:38:54;53179.03;;;-145.32;79.87
14041;BME280;7095;51.388;6.196;2022-08-21T10:42:03;53177.06;;;-145.32;77.74
14041;BME280;7095;51.388;6.196;2022-08-21T10:44:39;53185.00;;;-145.32;77.21
14041;BME280;7095;51.388;6.196;2022-08-21T10:47:18;53204.88;;;-145.32;74.37
14041;BME280;7095;51.388;6.196;2022-08-21T10:49:53;53212.84;;;-145.32;71.44
14041;BME280;7095;51.388;6.196;2022-08-21T10:52:41;53185.00;;;-145.32;63.33
14041;BME280;7095;51.388;6.196;2022-08-21T10:55:17;53181.03;;;-145.32;71.59
14041;BME280;7095;51.388;6.196;2022-08-21T10:57:51;53212.84;;;-145.32;70.57
14041;BME280;7095;51.388;6.196;2022-08-21T11:00:28;53177.06;;;-145.32;70.55
14041;BME280;7095;51.388;6.196;2022-08-21T11:03:03;53200.91;;;-145.32;64.66
14041;BME280;7095;51.388;6.196;2022-08-21T11:05:35;53167.13;;;-145.32;66.00
14041;BME280;7095;51.388;6.196;2022-08-21T11:08:10;53200.91;;;-145.32;67.41
14041;BME280;7095;51.388;6.196;2022-08-21T11:10:46;53200.91;;;-145.32;65.91
14041;BME280;7095;51.388;6.196;2022-08-21T11:13:30;53165.13;;;-145.32;59.30
14041;BME280;7095;51.388;6.196;2022-08-21T11:16:09;53175.06;;;-145.32;58.48
14041;BME280;7095;51.388;6.196;2022-08-21T11:18:44;53190.97;;;-145.32;56.43
14041;BME280;7095;51.388;6.196;2022-08-21T11:21:25;53159.16;;;-145.32;59.41
14041;BME280;7095;51.388;6.196;2022-08-21T11:24:03;53183.00;;;-145.32;57.98
14041;BME280;7095;51.388;6.196;2022-08-21T11:26:41;53208.84;;;-145.32;56.72
14041;BME280;7095;51.388;6.196;2022-08-21T11:29:21;53188.97;;;-145.32;54.50
14041;BME280;7095;51.388;6.196;2022-08-21T11:32:08;53181.03;;;-145.32;54.73
14041;BME280;7095;51.388;6.196;2022-08-21T11:34:52;53161.16;;;-145.32;52.91
14041;BME280;7095;51.388;6.196;2022-08-21T11:37:45;53181.03;;;-145.32;54.14
14041;BME280;7095;51.388;6.196;2022-08-21T11:40:35;53216.81;;;-145.32;51.82
14041;BME280;7095;51.388;6.196;2022-08-21T11:43:12;53192.94;;;-145.32;53.15
14041;BME280;7095;51.388;6.196;2022-08-21T11:45:46;53179.03;;;-145.32;56.05
14041;BME280;7095;51.388;6.196;2022-08-21T11:48:25;53169.09;;;-145.32;55.55
14041;BME280;7095;51.388;6.196;2022-08-21T11:50:57;53185.00;;;-145.32;56.06
14041;BME280;7095;51.388;6.196;2022-08-21T11:53:33;53137.28;;;-145.32;53.89
14041;BME280;7095;51.388;6.196;2022-08-21T11:56:09;53169.09;;;-145.32;54.30
14041;BME280;7095;51.388;6.196;2022-08-21T11:58:43;53175.06;;;-145.32;54.67
14041;BME280;7095;51.388;6.196;2022-08-21T12:01:16;53165.13;;;-145.32;54.27
14041;BME280;7095;51.388;6.196;2022-08-21T12:03:53;53200.91;;;-145.32;53.57
14041;BME280;7095;51.388;6.196;2022-08-21T12:06:35;53165.13;;;-145.32;52.30
14041;BME280;7095;51.388;6.196;2022-08-21T12:09:06;53188.97;;;-145.32;54.85
14041;BME280;7095;51.388;6.196;2022-08-21T12:11:46;53165.13;;;-145.32;54.34
14041;BME280;7095;51.388;6.196;2022-08-21T12:14:17;53135.31;;;-145.32;54.97
14041;BME280;7095;51.388;6.196;2022-08-21T12:16:48;53151.22;;;-145.32;53.73
14041;BME280;7095;51.388;6.196;2022-08-21T12:19:32;53135.31;;;-145.32;46.92
14041;BME280;7095;51.388;6.196;2022-08-21T12:22:11;53165.13;;;-145.32;45.33
14041;BME280;7095;51.388;6.196;2022-08-21T12:24:43;53169.09;;;-145.32;46.96
14041;BME280;7095;51.388;6.196;2022-08-21T12:27:19;53145.25;;;-145.32;45.73
14041;BME280;7095;51.388;6.196;2022-08-21T12:29:55;53141.28;;;-145.32;44.53
14041;BME280;7095;51.388;6.196;2022-08-21T12:32:27;53113.44;;;-145.32;42.84
14041;BME280;7095;51.388;6.196;2022-08-21T12:35:02;53115.44;;;-145.32;42.71
14041;BME280;7095;51.388;6.196;2022-08-21T12:37:44;53133.31;;;-145.32;40.97
14041;BME280;7095;51.388;6.196;2022-08-21T12:40:22;53145.25;;;-145.32;40.43
14041;BME280;7095;51.388;6.196;2022-08-21T12:42:53;53171.09;;;-145.32;41.67
14041;BME280;7095;51.388;6.196;2022-08-21T12:45:29;53163.13;;;-145.32;40.40
14041;BME280;7095;51.388;6.196;2022-08-21T12:48:03;53149.22;;;-145.32;41.52
14041;BME280;7095;51.388;6.196;2022-08-21T12:50:37;53161.16;;;-145.32;42.71
14041;BME280;7095;51.388;6.196;2022-08-21T12:53:22;53135.31;;;-145.32;41.99
14041;BME280;7095;51.388;6.196;2022-08-21T12:55:53;53121.41;;;-145.32;42.14
14041;BME280;7095;51.388;6.196;2022-08-21T12:58:27;53091.56;;;-145.32;41.53
14041;BME280;7095;51.388;6.196;2022-08-21T13:01:01;53105.50;;;-145.32;41.60
14041;BME280;7095;51.388;6.196;2022-08-21T13:03:33;53097.53;;;-145.32;41.22
14041;BME280;7095;51.388;6.196;2022-08-21T13:06:04;53097.53;;;-145.32;40.26
14041;BME280;7095;51.388;6.196;2022-08-21T13:08:35;53121.41;;;-145.32;38.88